Time;durP1;ratioP1;P1;durP2;ratioP2;P2;SDS_P1;SDS_P2;PMS_P1;PMS_P2;Temp;Humidity;BMP_temperature;BMP_pressure;BME280_temperature;BME280_humidity;BME280_pressure;Samples;Min_cycle;Max_cycle;Signal;HPM_P1;HPM_P2
2023/04/07 00:00:30;;;;;;;23.17;15.88;;;7.00;99.90;;;;;;5073455;28;20511;-61
2023/04/07 00:02:57;;;;;;;21.58;15.38;;;7.00;99.90;;;;;;5073571;28;20133;-62
2023/04/07 00:05:24;;;;;;;20.05;13.88;;;7.00;99.90;;;;;;5072589;28;20446;-63
2023/04/07 00:07:51;;;;;;;21.17;14.93;;;7.00;99.90;;;;;;5073261;28;20097;-63
2023/04/07 00:10:19;;;;;;;21.95;14.68;;;7.30;99.90;;;;;;5072025;28;20056;-63
2023/04/07 00:12:46;;;;;;;22.33;14.10;;;7.00;99.90;;;;;;5070678;28;20044;-64
2023/04/07 00:15:13;;;;;;;19.75;15.15;;;7.00;99.90;;;;;;5071943;28;20056;-61
2023/04/07 00:17:40;;;;;;;21.90;15.65;;;7.00;99.90;;;;;;5071316;28;20079;-62
2023/04/07 00:20:08;;;;;;;21.90;15.48;;;7.00;99.90;;;;;;5072519;28;20048;-62
2023/04/07 00:22:35;;;;;;;21.50;15.45;;;7.00;99.90;;;;;;5073098;28;20045;-62
2023/04/07 00:25:02;;;;;;;24.45;15.50;;;7.00;99.90;;;;;;5072861;28;20051;-62
2023/04/07 00:27:30;;;;;;;23.77;16.85;;;7.00;99.90;;;;;;5072551;28;20044;-63
2023/04/07 00:29:57;;;;;;;23.80;16.15;;;7.00;99.90;;;;;;5071092;28;20450;-63
2023/04/07 00:32:24;;;;;;;22.83;16.23;;;7.00;99.90;;;;;;5072411;28;20118;-63
2023/04/07 00:34:51;;;;;;;24.13;16.90;;;7.00;99.90;;;;;;5069051;28;20076;-62
2023/04/07 00:37:18;;;;;;;21.73;16.42;;;7.00;99.90;;;;;;5071608;28;20416;-63
2023/04/07 00:39:45;;;;;;;25.00;17.48;;;7.00;99.90;;;;;;5070196;28;20044;-61
2023/04/07 00:42:12;;;;;;;26.00;17.92;;;7.00;99.90;;;;;;5071344;28;20048;-62
2023/04/07 00:44:40;;;;;;;27.35;17.60;;;7.10;99.90;;;;;;5072542;28;20049;-61
2023/04/07 00:47:07;;;;;;;26.83;18.13;;;7.00;99.90;;;;;;5070953;28;20044;-62
2023/04/07 00:49:34;;;;;;;25.42;18.90;;;6.90;99.90;;;;;;5072840;28;20048;-62
2023/04/07 00:52:01;;;;;;;26.40;18.42;;;6.90;99.90;;;;;;5070303;28;20044;-62
2023/04/07 00:54:30;;;;;;;27.50;20.38;;;6.90;99.90;;;;;;5070670;28;20048;-64
2023/04/07 00:56:57;;;;;;;26.55;18.23;;;6.90;99.90;;;;;;5072484;28;20094;-61
2023/04/07 00:59:24;;;;;;;26.52;18.05;;;6.90;99.90;;;;;;5072376;28;20431;-62
2023/04/07 01:01:59;;;;;;;29.05;18.83;;;6.90;99.90;;;;;;5071757;28;20045;-61
2023/04/07 01:04:32;;;;;;;27.35;19.73;;;6.90;99.90;;;;;;5070876;28;20056;-61
2023/04/07 01:07:04;;;;;;;28.95;19.23;;;6.90;99.90;;;;;;5071434;28;20111;-62
2023/04/07 01:09:37;;;;;;;32.47;20.05;;;6.90;99.90;;;;;;5071813;28;20048;-62
2023/04/07 01:12:10;;;;;;;31.40;20.95;;;6.90;99.90;;;;;;5069121;28;20131;-63
2023/04/07 01:14:42;;;;;;;30.88;20.40;;;6.90;99.90;;;;;;5071677;28;20131;-62
2023/04/07 01:17:12;;;;;;;30.77;19.85;;;6.90;99.90;;;;;;5071152;28;20106;-63
2023/04/07 01:19:43;;;;;;;29.50;20.50;;;6.90;99.90;;;;;;5070812;28;20044;-62
2023/04/07 01:22:13;;;;;;;28.92;19.13;;;6.90;99.90;;;;;;5070423;28;20048;-62
2023/04/07 01:24:59;;;;;;;28.10;19.77;;;6.90;99.90;;;;;;5070072;28;20056;-62
2023/04/07 01:27:36;;;;;;;32.47;21.65;;;6.90;99.90;;;;;;5071979;28;20589;-63
2023/04/07 01:30:10;;;;;;;28.00;19.52;;;6.90;99.90;;;;;;5070321;28;20052;-63
2023/04/07 01:32:39;;;;;;;30.00;20.10;;;6.90;99.90;;;;;;5072193;28;20048;-62
2023/04/07 01:35:10;;;;;;;28.73;19.95;;;6.90;99.90;;;;;;5070791;28;20063;-62
2023/04/07 01:37:38;;;;;;;31.80;21.83;;;6.90;99.90;;;;;;5070387;28;20056;-62
2023/04/07 01:40:08;;;;;;;31.48;20.85;;;6.90;99.90;;;;;;5068363;28;20052;-62
2023/04/07 01:42:38;;;;;;;28.90;19.77;;;6.90;99.90;;;;;;5070303;28;20059;-62
2023/04/07 01:45:08;;;;;;;27.88;20.73;;;6.90;99.90;;;;;;5070879;28;20492;-63
2023/04/07 01:47:37;;;;;;;31.10;20.30;;;6.90;99.90;;;;;;5075191;28;20475;-63
2023/04/07 01:50:05;;;;;;;28.88;20.23;;;6.90;99.90;;;;;;5075354;28;20134;-63
2023/04/07 01:52:34;;;;;;;28.95;21.27;;;6.90;99.90;;;;;;5075947;28;20496;-62
2023/04/07 01:55:01;;;;;;;31.90;20.83;;;6.90;99.90;;;;;;5073918;28;20098;-63
2023/04/07 01:57:28;;;;;;;30.08;21.10;;;6.80;99.90;;;;;;5075254;28;20090;-63
2023/04/07 01:59:55;;;;;;;30.77;21.23;;;6.90;99.90;;;;;;5075707;28;20048;-64
2023/04/07 02:02:23;;;;;;;30.40;20.95;;;6.90;99.90;;;;;;5075631;28;20059;-62
2023/04/07 02:04:55;;;;;;;30.73;20.80;;;6.90;99.90;;;;;;5073715;28;20098;-63
2023/04/07 02:07:29;;;;;;;30.48;21.40;;;6.90;99.90;;;;;;5072411;28;20052;-63
2023/04/07 02:10:00;;;;;;;29.45;21.38;;;6.90;99.90;;;;;;5073568;28;20083;-63
2023/04/07 02:12:28;;;;;;;;;;;6.90;99.90;;;;;;5075358;28;20131;-62
2023/04/07 02:14:56;;;;;;;30.20;19.70;;;6.90;99.90;;;;;;5075333;28;19966;-63
2023/04/07 02:17:25;;;;;;;33.75;20.90;;;6.90;99.90;;;;;;5073206;28;20131;-62
2023/04/07 02:19:53;;;;;;;26.85;20.08;;;6.90;99.90;;;;;;5073698;28;20101;-63
2023/04/07 02:22:20;;;;;;;29.83;19.77;;;6.90;99.90;;;;;;5074146;28;20450;-62
2023/04/07 02:24:47;;;;;;;26.83;19.73;;;6.90;99.90;;;;;;5073326;28;20094;-62
2023/04/07 02:27:14;;;;;;;28.27;19.52;;;6.90;99.90;;;;;;5075266;28;20566;-63
2023/04/07 02:29:41;;;;;;;27.88;19.60;;;6.90;99.90;;;;;;5075235;28;20487;-62
2023/04/07 02:32:08;;;;;;;31.58;21.27;;;6.90;99.90;;;;;;5073585;28;20051;-63
2023/04/07 02:34:36;;;;;;;28.45;19.63;;;6.90;99.90;;;;;;5074010;28;20106;-63
2023/04/07 02:37:03;;;;;;;32.25;21.48;;;6.90;99.90;;;;;;5075058;28;20040;-63
2023/04/07 02:39:30;;;;;;;28.58;19.75;;;6.90;99.90;;;;;;5074569;28;20048;-62
2023/04/07 02:41:57;;;;;;;29.40;19.65;;;7.00;99.90;;;;;;5073707;28;20047;-63
2023/04/07 02:44:24;;;;;;;31.58;21.17;;;6.90;99.90;;;;;;5073777;28;20485;-62
2023/04/07 02:46:51;;;;;;;29.13;20.35;;;6.90;99.90;;;;;;5073304;28;20079;-63
2023/04/07 02:49:18;;;;;;;28.45;20.02;;;6.90;99.90;;;;;;5073878;28;20049;-63
2023/04/07 02:51:46;;;;;;;30.77;21.23;;;6.90;99.90;;;;;;5074893;28;20102;-62
2023/04/07 02:54:13;;;;;;;27.40;20.13;;;6.90;99.90;;;;;;5073983;28;20452;-62
2023/04/07 02:56:40;;;;;;;26.83;18.75;;;6.90;99.90;;;;;;5074606;28;20462;-62
2023/04/07 02:59:07;;;;;;;30.63;20.25;;;6.90;99.90;;;;;;5074722;28;20063;-62
2023/04/07 03:01:35;;;;;;;30.95;21.25;;;6.90;99.90;;;;;;5073921;28;20045;-62
2023/04/07 03:04:02;;;;;;;31.50;21.67;;;6.90;99.90;;;;;;5074294;28;20048;-62
2023/04/07 03:06:28;;;;;;;32.72;21.42;;;6.90;99.90;;;;;;5073254;28;20093;-62
2023/04/07 03:08:57;;;;;;;29.80;21.73;;;6.90;99.90;;;;;;5072788;28;20044;-63
2023/04/07 03:11:24;;;;;;;27.83;19.58;;;6.90;99.90;;;;;;5073388;28;20056;-63
2023/04/07 03:13:50;;;;;;;32.58;21.58;;;6.90;99.90;;;;;;5074451;28;20102;-63
2023/04/07 03:16:17;;;;;;;31.15;21.02;;;6.90;99.90;;;;;;5074115;28;20503;-63
2023/04/07 03:18:44;;;;;;;30.23;22.17;;;6.90;99.90;;;;;;5073367;28;20142;-63
2023/04/07 03:21:12;;;;;;;31.77;22.20;;;6.90;99.90;;;;;;5073819;28;20196;-62
2023/04/07 03:23:39;;;;;;;28.65;20.95;;;6.90;99.90;;;;;;5071953;28;20040;-62
2023/04/07 03:26:08;;;;;;;30.67;21.42;;;6.90;99.90;;;;;;5073212;28;20137;-62
2023/04/07 03:28:35;;;;;;;30.15;20.90;;;6.90;99.90;;;;;;5071887;28;20052;-63
2023/04/07 03:31:02;;;;;;;30.23;20.75;;;6.90;99.90;;;;;;5074146;28;20408;-62
2023/04/07 03:33:29;;;;;;;26.67;20.40;;;6.90;99.90;;;;;;5074084;28;20123;-62
2023/04/07 03:35:56;;;;;;;28.27;19.70;;;6.90;99.90;;;;;;5072297;28;20055;-63
2023/04/07 03:38:23;;;;;;;32.35;21.33;;;6.90;99.90;;;;;;5074049;28;20120;-64
2023/04/07 03:40:50;;;;;;;29.48;20.67;;;6.90;99.90;;;;;;5070969;28;20500;-65
2023/04/07 03:43:18;;;;;;;28.20;20.13;;;6.90;99.90;;;;;;5072163;28;20048;-63
2023/04/07 03:45:46;;;;;;;27.67;19.92;;;6.90;99.90;;;;;;5072044;28;20135;-64
2023/04/07 03:48:13;;;;;;;29.80;20.05;;;6.90;99.90;;;;;;5072731;28;20061;-63
2023/04/07 03:50:40;;;;;;;29.42;20.73;;;6.90;99.90;;;;;;5067414;28;20052;-63
2023/04/07 03:53:08;;;;;;;29.50;20.67;;;6.90;99.90;;;;;;5067000;28;20552;-63
2023/04/07 03:55:35;;;;;;;33.13;20.25;;;6.90;99.90;;;;;;5071583;28;20044;-63
2023/04/07 03:58:02;;;;;;;28.63;20.15;;;6.90;99.90;;;;;;5070857;28;20056;-63
2023/04/07 04:00:32;;;;;;;29.63;19.70;;;6.90;99.90;;;;;;5068451;28;20060;-62
2023/04/07 04:02:59;;;;;;;31.83;20.17;;;6.90;99.90;;;;;;5071929;28;20055;-62
2023/04/07 04:05:26;;;;;;;29.83;19.70;;;6.90;99.90;;;;;;5069623;28;20094;-63
2023/04/07 04:07:53;;;;;;;30.38;19.95;;;6.90;99.90;;;;;;5070766;28;20052;-63
2023/04/07 04:10:20;;;;;;;26.73;19.88;;;6.90;99.90;;;;;;5070201;28;20048;-62
2023/04/07 04:12:48;;;;;;;31.63;20.88;;;6.90;99.90;;;;;;5070655;28;20090;-62
2023/04/07 04:15:15;;;;;;;27.90;19.75;;;6.90;99.90;;;;;;5071656;28;20056;-62
2023/04/07 04:17:44;;;;;;;30.42;19.73;;;6.90;99.90;;;;;;5069703;28;20094;-61
2023/04/07 04:20:12;;;;;;;26.00;18.67;;;6.80;99.90;;;;;;5070359;28;20048;-62
2023/04/07 04:22:39;;;;;;;28.83;20.33;;;6.90;99.90;;;;;;5100779;28;20396;-63
2023/04/07 04:25:06;;;;;;;29.30;20.83;;;6.90;99.90;;;;;;5069289;28;20056;-62
2023/04/07 04:27:33;;;;;;;31.92;21.20;;;6.90;99.90;;;;;;5067871;28;20048;-62
2023/04/07 04:30:00;;;;;;;29.58;20.15;;;6.80;99.90;;;;;;5070663;28;20053;-62
2023/04/07 04:32:27;;;;;;;28.75;20.42;;;6.80;99.90;;;;;;5069010;28;20052;-62
2023/04/07 04:34:55;;;;;;;31.02;20.83;;;6.80;99.90;;;;;;5070923;28;20049;-63
2023/04/07 04:37:22;;;;;;;28.27;19.75;;;6.80;99.90;;;;;;5069585;28;20514;-62
2023/04/07 04:39:49;;;;;;;28.17;19.52;;;6.80;99.90;;;;;;5071149;28;20381;-63
2023/04/07 04:42:16;;;;;;;29.75;19.23;;;6.80;99.90;;;;;;5068573;28;20484;-61
2023/04/07 04:44:43;;;;;;;30.35;19.98;;;6.80;99.90;;;;;;5070769;28;20132;-62
2023/04/07 04:47:10;;;;;;;28.23;17.75;;;6.80;99.90;;;;;;5068729;28;20102;-62
2023/04/07 04:49:37;;;;;;;25.50;18.50;;;6.80;99.90;;;;;;5070504;28;20098;-63
2023/04/07 04:52:05;;;;;;;25.10;17.05;;;6.80;99.90;;;;;;5069872;28;20051;-63
2023/04/07 04:54:33;;;;;;;26.67;17.83;;;6.70;99.90;;;;;;5069669;28;20052;-62
2023/04/07 04:57:00;;;;;;;24.05;17.83;;;6.80;99.90;;;;;;5065851;28;20131;-62
2023/04/07 04:59:27;;;;;;;28.42;18.02;;;6.80;99.90;;;;;;5070622;28;20136;-63
2023/04/07 05:01:54;;;;;;;26.10;17.60;;;6.80;99.90;;;;;;5065585;28;20053;-61
2023/04/07 05:04:21;;;;;;;23.73;16.02;;;6.90;99.90;;;;;;5069525;28;20056;-63
2023/04/07 05:06:48;;;;;;;25.55;17.80;;;6.80;99.90;;;;;;5066804;28;20380;-62
2023/04/07 05:09:16;;;;;;;23.95;17.27;;;6.80;99.90;;;;;;5096914;28;20052;-61
2023/04/07 05:11:43;;;;;;;25.95;16.75;;;6.90;99.90;;;;;;5070862;28;20040;-63
2023/04/07 05:14:10;;;;;;;24.33;16.13;;;7.00;99.90;;;;;;5068629;28;20447;-61
2023/04/07 05:16:37;;;;;;;21.55;14.93;;;6.90;99.90;;;;;;5101137;28;20106;-62
2023/04/07 05:19:03;;;;;;;21.90;15.20;;;6.90;99.90;;;;;;5068207;28;20048;-62
2023/04/07 05:21:30;;;;;;;23.08;16.70;;;6.90;99.90;;;;;;5068384;28;20041;-62
2023/04/07 05:23:57;;;;;;;22.98;15.77;;;6.90;99.90;;;;;;5069490;28;20595;-62
2023/04/07 05:26:25;;;;;;;21.58;15.70;;;6.80;99.90;;;;;;5071124;28;20052;-61
2023/04/07 05:28:52;;;;;;;22.45;15.63;;;6.90;99.90;;;;;;5068003;28;20536;-62
2023/04/07 05:31:19;;;;;;;23.63;15.70;;;6.90;99.90;;;;;;5069596;28;20124;-62
2023/04/07 05:33:46;;;;;;;24.73;16.95;;;6.90;99.90;;;;;;5068840;28;20064;-62
2023/04/07 05:36:13;;;;;;;22.85;16.17;;;6.90;99.90;;;;;;5070750;28;20044;-62
2023/04/07 05:38:40;;;;;;;23.35;16.00;;;6.90;99.90;;;;;;5069025;28;20049;-62
2023/04/07 05:41:07;;;;;;;20.70;14.75;;;6.90;99.90;;;;;;5071147;28;20048;-61
2023/04/07 05:43:35;;;;;;;21.30;15.20;;;6.90;99.90;;;;;;5066926;28;20088;-63
2023/04/07 05:46:02;;;;;;;21.83;14.65;;;7.00;99.90;;;;;;5069375;28;20049;-62
2023/04/07 05:48:29;;;;;;;22.73;15.82;;;7.00;99.90;;;;;;5068393;28;20040;-62
2023/04/07 05:50:56;;;;;;;22.48;14.93;;;7.00;99.90;;;;;;5069823;28;20060;-61
2023/04/07 05:53:22;;;;;;;24.10;15.05;;;7.00;99.90;;;;;;5068749;28;20488;-62
2023/04/07 05:55:49;;;;;;;19.90;14.82;;;7.00;99.90;;;;;;5069878;28;20048;-61
2023/04/07 05:58:16;;;;;;;25.13;15.95;;;7.00;99.90;;;;;;5099306;28;20412;-61
2023/04/07 06:00:44;;;;;;;21.60;15.32;;;7.00;99.90;;;;;;5068045;28;20455;-62
2023/04/07 06:03:11;;;;;;;23.42;15.20;;;7.00;99.90;;;;;;5069406;28;20037;-61
2023/04/07 06:05:42;;;;;;;20.55;14.55;;;7.00;99.90;;;;;;5068124;28;20548;-63
2023/04/07 06:08:09;;;;;;;18.95;15.00;;;7.00;99.90;;;;;;5070188;28;20090;-62
2023/04/07 06:10:36;;;;;;;21.30;15.30;;;7.10;99.90;;;;;;5069756;28;20055;-62
2023/04/07 06:13:02;;;;;;;21.50;15.10;;;7.10;99.90;;;;;;5068090;28;20048;-63
2023/04/07 06:15:29;;;;;;;20.58;15.02;;;7.10;99.90;;;;;;5071277;28;20053;-62
2023/04/07 06:17:58;;;;;;;23.73;16.63;;;7.10;99.90;;;;;;5070429;28;20094;-62
2023/04/07 06:20:26;;;;;;;21.73;15.48;;;7.10;99.90;;;;;;5070467;28;20095;-62
2023/04/07 06:22:53;;;;;;;20.75;14.73;;;7.20;99.90;;;;;;5071062;28;20048;-61
2023/04/07 06:25:20;;;;;;;23.08;15.80;;;7.10;99.90;;;;;;5070548;28;20052;-62
2023/04/07 06:27:47;;;;;;;20.35;14.60;;;7.10;99.90;;;;;;5070202;28;20113;-62
2023/04/07 06:30:15;;;;;;;20.92;14.15;;;7.20;99.90;;;;;;5070640;28;20500;-62
2023/04/07 06:32:45;;;;;;;19.10;13.95;;;7.20;99.90;;;;;;5072262;28;20120;-62
2023/04/07 06:35:13;;;;;;;22.48;15.27;;;7.20;99.90;;;;;;5073797;28;20056;-63
2023/04/07 06:37:40;;;;;;;19.30;14.20;;;7.20;99.90;;;;;;5073768;28;20048;-61
2023/04/07 06:40:08;;;;;;;19.55;14.25;;;7.30;99.90;;;;;;5074558;28;20060;-61
2023/04/07 06:42:35;;;;;;;22.70;14.20;;;7.30;99.90;;;;;;5074691;28;20416;-61
2023/04/07 06:45:02;;;;;;;18.55;13.70;;;7.30;99.90;;;;;;5073138;28;20118;-60
2023/04/07 06:47:29;;;;;;;18.90;13.25;;;7.40;99.90;;;;;;5073517;28;20098;-62
2023/04/07 06:49:56;;;;;;;19.17;13.52;;;7.40;99.90;;;;;;5074746;28;20048;-62
2023/04/07 06:52:24;;;;;;;21.65;13.70;;;7.50;99.90;;;;;;5072848;28;20484;-61
2023/04/07 06:54:51;;;;;;;21.48;14.13;;;7.50;99.90;;;;;;5073195;28;20057;-61
2023/04/07 06:57:18;;;;;;;17.48;13.20;;;7.60;99.90;;;;;;5074798;28;20411;-61
2023/04/07 06:59:45;;;;;;;20.45;14.90;;;7.60;99.90;;;;;;5072790;28;20048;-61
2023/04/07 07:02:12;;;;;;;21.10;14.43;;;7.70;99.90;;;;;;5074512;28;20044;-61
2023/04/07 07:04:38;;;;;;;21.40;14.45;;;7.70;99.90;;;;;;5073979;28;20177;-61
2023/04/07 07:07:05;;;;;;;17.73;13.63;;;7.70;99.90;;;;;;5074035;28;20041;-62
2023/04/07 07:09:34;;;;;;;17.77;13.50;;;7.80;99.90;;;;;;5074468;28;20132;-61
2023/04/07 07:12:01;;;;;;;20.13;14.48;;;7.70;99.90;;;;;;5074331;28;20071;-62
2023/04/07 07:14:28;;;;;;;17.35;12.88;;;7.80;99.90;;;;;;5073538;28;20135;-61
2023/04/07 07:16:55;;;;;;;20.10;13.07;;;7.90;99.90;;;;;;5074034;28;20045;-62
2023/04/07 07:19:22;;;;;;;17.77;12.45;;;7.90;99.90;;;;;;5073064;28;20076;-63
2023/04/07 07:21:49;;;;;;;18.00;13.02;;;8.00;99.90;;;;;;5071927;28;20109;-63
2023/04/07 07:24:16;;;;;;;17.25;12.85;;;8.00;99.90;;;;;;5073923;28;20052;-62
2023/04/07 07:26:44;;;;;;;18.50;13.20;;;8.00;99.90;;;;;;5073059;28;20063;-63
2023/04/07 07:29:11;;;;;;;17.90;12.93;;;8.10;99.90;;;;;;5072121;28;20048;-63
2023/04/07 07:31:38;;;;;;;19.45;13.25;;;8.20;99.90;;;;;;5071813;28;20052;-63
2023/04/07 07:34:05;;;;;;;20.80;12.98;;;8.30;99.90;;;;;;5073505;28;20476;-63
2023/04/07 07:36:32;;;;;;;16.90;12.75;;;8.30;99.90;;;;;;5072320;28;20067;-63
2023/04/07 07:38:59;;;;;;;17.45;11.60;;;8.40;99.90;;;;;;5073931;28;20060;-63
2023/04/07 07:41:26;;;;;;;21.20;12.88;;;8.40;99.90;;;;;;5072231;28;20143;-63
2023/04/07 07:43:54;;;;;;;18.05;12.13;;;8.50;99.90;;;;;;5071157;28;20044;-63
2023/04/07 07:46:23;;;;;;;15.15;11.02;;;8.60;99.90;;;;;;5072232;28;20052;-62
2023/04/07 07:48:50;;;;;;;15.82;12.93;;;8.70;99.90;;;;;;5072209;28;20051;-62
2023/04/07 07:51:17;;;;;;;16.88;12.18;;;8.70;99.90;;;;;;5072197;28;20048;-62
2023/04/07 07:53:44;;;;;;;17.17;11.70;;;8.90;99.90;;;;;;5072204;28;20484;-62
2023/04/07 07:56:11;;;;;;;16.70;12.35;;;8.90;99.90;;;;;;5073046;28;20123;-63
2023/04/07 07:58:38;;;;;;;15.98;10.90;;;9.00;99.90;;;;;;5072295;28;20407;-63
2023/04/07 08:01:06;;;;;;;15.93;11.52;;;9.00;99.90;;;;;;5072282;28;20048;-63
2023/04/07 08:03:33;;;;;;;16.10;11.45;;;9.10;99.90;;;;;;5070894;28;20053;-63
2023/04/07 08:06:00;;;;;;;16.10;11.07;;;9.00;99.90;;;;;;5073508;28;20052;-63
2023/04/07 08:08:27;;;;;;;14.75;10.50;;;8.90;99.90;;;;;;5073060;28;20123;-63
2023/04/07 08:10:54;;;;;;;15.57;10.43;;;8.80;99.90;;;;;;5071453;28;20048;-63
2023/04/07 08:13:21;;;;;;;14.20;10.85;;;8.80;99.90;;;;;;5071057;28;20111;-62
2023/04/07 08:15:48;;;;;;;15.10;10.95;;;8.80;99.90;;;;;;5071824;28;20048;-62
2023/04/07 08:18:16;;;;;;;17.27;10.40;;;8.90;99.90;;;;;;5072603;28;20098;-62
2023/04/07 08:20:43;;;;;;;12.88;10.25;;;8.90;99.90;;;;;;5072874;28;20045;-62
2023/04/07 08:23:10;;;;;;;14.77;10.52;;;8.90;99.90;;;;;;5071671;28;20052;-62
2023/04/07 08:25:38;;;;;;;14.27;10.63;;;8.90;99.90;;;;;;5070193;28;20048;-62
2023/04/07 08:28:06;;;;;;;13.90;10.57;;;8.80;99.90;;;;;;5071784;28;20052;-62
2023/04/07 08:30:32;;;;;;;15.32;10.70;;;8.80;99.90;;;;;;5070976;28;20530;-62
2023/04/07 08:32:59;;;;;;;14.02;10.10;;;8.90;99.90;;;;;;5072809;28;20110;-63
2023/04/07 08:35:28;;;;;;;13.68;10.00;;;8.90;99.90;;;;;;5071649;28;20059;-62
2023/04/07 08:37:55;;;;;;;13.65;9.95;;;8.90;99.90;;;;;;5070113;28;20048;-62
2023/04/07 08:40:22;;;;;;;13.38;9.98;;;8.90;99.90;;;;;;5071277;28;20194;-62
2023/04/07 08:42:49;;;;;;;12.48;9.77;;;9.00;99.90;;;;;;5071400;28;20048;-63
2023/04/07 08:45:17;;;;;;;14.80;10.52;;;8.90;99.90;;;;;;5070819;28;20056;-63
2023/04/07 08:47:46;;;;;;;12.95;9.88;;;9.10;99.90;;;;;;5072743;28;20094;-62
2023/04/07 08:50:15;;;;;;;12.30;9.35;;;9.20;99.90;;;;;;5071132;28;20056;-62
2023/04/07 08:52:46;;;;;;;14.23;9.40;;;9.30;99.90;;;;;;5070778;28;20048;-63
2023/04/07 08:55:13;;;;;;;13.05;8.98;;;9.30;99.90;;;;;;5070688;28;20052;-63
2023/04/07 08:57:41;;;;;;;13.07;10.68;;;9.40;99.90;;;;;;5072394;28;20044;-63
2023/04/07 09:00:10;;;;;;;19.98;13.00;;;9.50;99.90;;;;;;5071766;28;20048;-63
2023/04/07 09:02:39;;;;;;;15.27;11.73;;;9.60;99.90;;;;;;5072043;28;20108;-63
2023/04/07 09:05:07;;;;;;;16.70;11.48;;;9.70;99.90;;;;;;5068964;28;20056;-62
2023/04/07 09:07:35;;;;;;;14.23;11.15;;;10.10;99.90;;;;;;5071435;28;20392;-62
2023/04/07 09:10:05;;;;;;;16.88;12.20;;;10.40;99.90;;;;;;5072204;28;20507;-62
2023/04/07 09:12:33;;;;;;;16.73;11.73;;;10.50;99.90;;;;;;5070188;28;20045;-62
2023/04/07 09:15:00;;;;;;;16.95;12.80;;;10.50;99.90;;;;;;5070431;28;20504;-63
2023/04/07 09:17:27;;;;;;;16.42;12.98;;;10.60;99.90;;;;;;5071210;28;20549;-63
2023/04/07 09:19:57;;;;;;;19.15;13.88;;;10.60;99.90;;;;;;5071316;28;20041;-63
2023/04/07 09:22:37;;;;;;;15.45;11.73;;;10.50;99.90;;;;;;5071618;28;20071;-63
2023/04/07 09:25:16;;;;;;;18.13;13.18;;;10.50;99.90;;;;;;5070863;28;20381;-63
2023/04/07 09:27:59;;;;;;;18.13;13.82;;;10.50;99.90;;;;;;5069866;28;20041;-63
2023/04/07 09:30:26;;;;;;;16.45;12.82;;;10.80;99.90;;;;;;5069819;28;20506;-62
2023/04/07 09:32:53;;;;;;;18.00;13.02;;;11.10;99.90;;;;;;5070813;28;20090;-63
2023/04/07 09:35:22;;;;;;;17.67;11.90;;;11.10;99.90;;;;;;5071115;28;20094;-62
2023/04/07 09:38:02;;;;;;;16.10;12.20;;;11.20;99.90;;;;;;5072226;28;20048;-62
2023/04/07 09:40:31;;;;;;;16.75;12.20;;;11.10;99.90;;;;;;5071683;28;20044;-62
2023/04/07 09:42:58;;;;;;;18.88;12.75;;;11.20;99.90;;;;;;5071285;28;20128;-62
2023/04/07 09:45:26;;;;;;;17.30;12.95;;;11.30;99.90;;;;;;5070603;28;20540;-62
2023/04/07 09:47:53;;;;;;;19.48;13.38;;;11.40;99.90;;;;;;5071426;28;20044;-63
2023/04/07 09:50:32;;;;;;;15.77;12.45;;;11.40;99.90;;;;;;5068263;28;20135;-63
2023/04/07 09:53:00;;;;;;;15.63;11.45;;;11.60;99.90;;;;;;5069829;28;20048;-63
2023/04/07 09:55:28;;;;;;;14.85;10.85;;;11.50;99.90;;;;;;5055947;28;20075;-63
2023/04/07 09:57:57;;;;;;;15.98;11.30;;;11.50;99.90;;;;;;5065684;28;20048;-62
2023/04/07 10:00:24;;;;;;;14.35;11.70;;;11.20;99.90;;;;;;5082112;28;21076;-62
2023/04/07 10:02:51;;;;;;;16.70;11.73;;;11.10;99.90;;;;;;5067421;28;20055;-63
2023/04/07 10:05:20;;;;;;;14.95;10.38;;;11.10;99.90;;;;;;5066781;28;20547;-63
2023/04/07 10:07:47;;;;;;;12.38;10.07;;;11.30;99.90;;;;;;5070125;28;20455;-64
2023/04/07 10:10:15;;;;;;;13.13;9.68;;;11.40;99.90;;;;;;5072930;28;20084;-61
2023/04/07 10:12:42;;;;;;;13.82;9.80;;;11.60;99.90;;;;;;5072793;28;20110;-64
2023/04/07 10:15:14;;;;;;;13.30;10.40;;;11.40;99.90;;;;;;5105214;28;20605;-63
2023/04/07 10:17:46;;;;;;;13.90;9.95;;;11.20;99.90;;;;;;5071363;28;20097;-62
2023/04/07 10:20:14;;;;;;;12.70;9.75;;;11.00;99.90;;;;;;5071817;28;20052;-64
2023/04/07 10:22:44;;;;;;;11.82;9.48;;;10.90;99.90;;;;;;5072138;28;20086;-64
2023/04/07 10:25:15;;;;;;;10.25;7.10;;;10.90;99.90;;;;;;5074241;28;20048;-63
2023/04/07 10:27:49;;;;;;;9.10;6.85;;;10.90;99.90;;;;;;5068984;28;20059;-62
2023/04/07 10:30:20;;;;;;;8.80;6.82;;;10.80;99.90;;;;;;5073993;28;20430;-63
2023/04/07 10:32:48;;;;;;;10.05;7.13;;;10.70;99.90;;;;;;5072868;28;20045;-63
2023/04/07 10:35:15;;;;;;;8.05;6.40;;;10.90;99.90;;;;;;5073233;28;20102;-63
2023/04/07 10:38:16;;;;;;;9.38;6.95;;;11.20;99.90;;;;;;5072464;28;20056;-63
2023/04/07 10:40:43;;;;;;;9.98;7.43;;;11.80;99.90;;;;;;5072753;28;20055;-63
2023/04/07 10:43:11;;;;;;;10.25;7.50;;;11.90;99.90;;;;;;5073386;28;20106;-63
2023/04/07 10:45:59;;;;;;;8.82;6.60;;;11.90;99.90;;;;;;5071179;28;20131;-62
2023/04/07 10:48:31;;;;;;;10.43;7.47;;;11.70;99.90;;;;;;5074307;28;20058;-63
2023/04/07 10:51:17;;;;;;;10.43;7.63;;;11.50;99.90;;;;;;5071078;28;20526;-63
2023/04/07 10:54:19;;;;;;;11.48;8.68;;;11.50;99.90;;;;;;5072300;28;20131;-62
2023/04/07 10:57:10;;;;;;;11.82;8.98;;;11.60;99.90;;;;;;5028948;28;20099;-62
2023/04/07 10:59:39;;;;;;;13.18;9.30;;;11.80;99.90;;;;;;5064856;28;20496;-63
2023/04/07 11:02:35;;;;;;;12.55;8.82;;;11.90;99.90;;;;;;5073253;28;20060;-63
2023/04/07 11:05:03;;;;;;;12.20;9.23;;;12.20;99.90;;;;;;5072212;28;20055;-63
2023/04/07 11:07:49;;;;;;;12.82;9.35;;;12.50;99.90;;;;;;5073582;28;20504;-63
2023/04/07 11:10:18;;;;;;;13.95;9.52;;;12.90;99.90;;;;;;5071334;28;20087;-63
2023/04/07 11:12:58;;;;;;;11.77;9.02;;;13.10;99.90;;;;;;5071456;28;20079;-63
2023/04/07 11:15:25;;;;;;;13.18;9.85;;;13.40;99.90;;;;;;5073101;28;20049;-63
2023/04/07 11:18:13;;;;;;;15.68;9.95;;;13.50;99.90;;;;;;5072357;28;20079;-63
2023/04/07 11:20:42;;;;;;;11.45;8.40;;;13.40;99.90;;;;;;5072438;28;20074;-63
2023/04/07 11:23:10;;;;;;;11.38;8.35;;;13.00;99.90;;;;;;5071775;28;20531;-63
2023/04/07 11:25:38;;;;;;;11.95;8.50;;;12.90;99.90;;;;;;5073258;28;20388;-64
2023/04/07 11:28:05;;;;;;;11.13;7.93;;;12.60;99.90;;;;;;5070412;28;20044;-64
2023/04/07 11:30:32;;;;;;;10.52;8.00;;;12.40;99.90;;;;;;5072602;28;20056;-63
2023/04/07 11:32:59;;;;;;;10.57;8.27;;;12.40;99.90;;;;;;5072643;28;20047;-63
2023/04/07 11:35:27;;;;;;;9.68;7.75;;;12.50;99.90;;;;;;5071789;28;20052;-63
2023/04/07 11:37:59;;;;;;;9.57;7.00;;;12.70;99.90;;;;;;5071178;28;20737;-63
2023/04/07 11:40:33;;;;;;;9.00;7.15;;;13.00;99.90;;;;;;5070901;28;20048;-63
2023/04/07 11:43:00;;;;;;;11.85;7.82;;;13.00;99.90;;;;;;5072096;28;20055;-63
2023/04/07 11:45:27;;;;;;;10.43;7.07;;;13.10;99.90;;;;;;5072952;28;20401;-63
2023/04/07 11:47:54;;;;;;;10.23;7.43;;;13.30;99.90;;;;;;5072435;28;20051;-63
2023/04/07 11:50:41;;;;;;;9.70;7.07;;;13.40;99.90;;;;;;5070956;28;20056;-63
2023/04/07 11:53:09;;;;;;;9.95;7.38;;;13.40;99.90;;;;;;5072569;28;20086;-63
2023/04/07 11:55:36;;;;;;;10.15;6.57;;;13.30;99.90;;;;;;5071471;28;20051;-63
2023/04/07 11:58:08;;;;;;;8.77;6.57;;;13.30;99.90;;;;;;5073529;28;20056;-62
2023/04/07 12:00:36;;;;;;;8.05;6.50;;;13.20;99.90;;;;;;5072309;28;20101;-63
2023/04/07 12:03:11;;;;;;;8.68;6.90;;;13.20;99.90;;;;;;5073167;28;20444;-63
2023/04/07 12:05:44;;;;;;;7.65;5.82;;;13.10;99.90;;;;;;5073373;28;20052;-63
2023/04/07 12:08:11;;;;;;;7.53;6.10;;;13.10;99.90;;;;;;5072414;28;20056;-63
2023/04/07 12:10:40;;;;;;;8.13;6.50;;;13.30;99.90;;;;;;5072976;28;20134;-63
2023/04/07 12:13:08;;;;;;;7.40;5.63;;;13.60;99.90;;;;;;5072263;28;20507;-62
2023/04/07 12:15:35;;;;;;;8.52;6.65;;;14.10;99.90;;;;;;5071518;28;20135;-62
2023/04/07 12:18:03;;;;;;;7.68;6.05;;;14.50;99.90;;;;;;5073224;28;20156;-63
2023/04/07 12:20:30;;;;;;;7.80;6.03;;;14.80;99.90;;;;;;5073176;28;20537;-63
2023/04/07 12:22:59;;;;;;;9.68;7.35;;;14.80;99.90;;;;;;5072184;28;20405;-63
2023/04/07 12:25:27;;;;;;;9.35;7.45;;;14.70;99.90;;;;;;5071617;28;20476;-63
2023/04/07 12:27:54;;;;;;;9.55;6.85;;;14.90;99.90;;;;;;5072022;28;20062;-63
2023/04/07 12:30:21;;;;;;;10.75;7.25;;;15.00;99.90;;;;;;5070635;28;20049;-62
2023/04/07 12:32:48;;;;;;;8.13;6.45;;;15.60;99.90;;;;;;5072613;28;20492;-63
2023/04/07 12:35:15;;;;;;;9.38;7.07;;;16.60;99.90;;;;;;5072707;28;20036;-62
2023/04/07 12:37:42;;;;;;;8.55;6.93;;;17.10;99.90;;;;;;5072183;28;20088;-63
2023/04/07 12:40:11;;;;;;;9.73;7.20;;;17.10;99.90;;;;;;5072747;28;20049;-63
2023/04/07 12:42:38;;;;;;;8.85;6.57;;;17.20;99.90;;;;;;5071560;28;20048;-63
2023/04/07 12:45:05;;;;;;;9.98;7.07;;;17.20;99.90;;;;;;5070447;28;20063;-63